Weather at Jack Northrop Field Hawthorne Municipal Airport

Public forecast

Using degrees Fahrenheit for public forecast. Weather courtesy of forecast.io.

Current aviation weather report (METAR) for Jack Northrop Field Hawthorne Municipal Airport

Retrieved 2021/05/12 04:00 UTC (58 minutes ago):

KHHR 120400Z 25007KT 10SM BKN014 17/13 A2995 RMK AO2 T01670128

Closest aviation forecast (TAF) to Jack Northrop Field Hawthorne Municipal Airport

Closest forecast is Los Angeles International Airport, 3.8 nm (7.1 km) WNW. Retrieved 2021-05-12 00:39 UTC (4 hours ago):

TAF KLAX 112337Z 1200/1306 26012KT P6SM SKC FM120500 26004KT P6SM BKN015 FM120800 VRB03KT P6SM OVC012 FM121500 VRB03KT P6SM OVC015 FM122000 26012KT P6SM SCT020 FM130300 26009KT P6SM BKN015